Post, Texas
Current Conditions -  °F | °C
As of 4:53 PM on Thursday 18 Dec 2014 (Local Time) from KLBB Reporting Station
Scattered Clouds Scattered Clouds  
Wind Chill: 52°   Ceiling: Unl
Heat Index: 52°   Visibility: 10mi
Dew Point: 31°   Wind: 7mph
Humidity: 45%   Direction: 70°ENE
Pressure: 30.04"   Gusts: NA
Location:  33.19°N, 101.38°W
Report Text: KLBB 182253Z 07006KT 10SM FEW150 FEW270 SCT300 11/M01 A3004 RMK AO2 SLP166 T01111006 $
Loading
Personal Weather Stations






























Interactive Weather Map New forecast layout! Learn more

10-Day Weather Forecast

Advertisements
Track Severe Weather on mobile